Check out our new BloomSky Weather System.

Active alerts

Houston, TX
  Details for Houston, TX Dense Fog Advisory


Thunder radar  blitzortung!


Rain radar more information rain snow radar


Visit our other weather sites:

Template documentation
and downloads

And another site



Weather Underground History page Text

Daily Summary for December 3, 2017 Units:  Metric    English   Both
« Previous Day
Next Day »
Daily Weekly Monthly Yearly Custom
  High: Low: Average:
Temperature: 20.3 °C 12.9 °C 17.6 °C
Dew Point: 19.7 °C 12.6 °C 17.1 °C
Humidity: 100 % 87 % 97 %
Wind Speed: 16.1 km/h 0 km/h 2.1 km/h
Wind Gust: 20.9 km/h - -
Wind:- - SE
Pressure: 1020.9 hPa 1015.8 hPa -
Precipitation: 21.84 mm    
Historical Graphs
 
 
Tabular Data for December 3, 2017
Time Temperature Dew Point Pressure Wind Wind Speed Wind Gust Humidity Rainfall Rate (Hourly)
00:07 15.2 °C 14.2 °C 1019.9 hPa Calm   1.6 km/h 94 % 0 mm
00:12 15.3 °C 14.5 °C 1019.9 hPa Calm   1.6 km/h 95 % 0 mm
00:17 15.3 °C 14.5 °C 1019.9 hPa Calm   1.6 km/h 95 % 0 mm
00:22 15.3 °C 14.5 °C 1019.9 hPa Calm   1.6 km/h 95 % 0 mm
00:29 15.4 °C 14.6 °C 1019.9 hPa Calm   1.6 km/h 95 % 0 mm
00:39 15.4 °C 14.6 °C 1019.5 hPa Calm   1.6 km/h 95 % 0 mm
00:44 15.3 °C 14.5 °C 1019.9 hPa Calm   1.6 km/h 95 % 0 mm
00:49 15.2 °C 14.4 °C 1019.5 hPa Calm   1.6 km/h 95 % 0 mm
00:59 15.2 °C 14.4 °C 1019.5 hPa Calm   1.6 km/h 95 % 0 mm
01:04 15.1 °C 14.3 °C 1019.5 hPa Calm   1.6 km/h 95 % 0 mm
01:09 14.9 °C 14.1 °C 1019.5 hPa Calm     95 % 0 mm
01:14 14.9 °C 14.1 °C 1019.5 hPa Calm     95 % 0 mm
01:19 14.8 °C 14.2 °C 1019.5 hPa Calm     96 % 0 mm
01:24 14.7 °C 13.9 °C 1019.5 hPa Calm   1.6 km/h 95 % 0 mm
01:50 14.4 °C 13.8 °C 1019.2 hPa Calm     96 % 0 mm
01:55 14.4 °C 13.8 °C 1019.2 hPa Calm     96 % 0 mm
02:00 14.3 °C 13.7 °C 1019.2 hPa Calm     96 % 0 mm
02:05 14.2 °C 13.6 °C 1019.2 hPa Calm     96 % 0 mm
02:10 14.1 °C 13.5 °C 1019.2 hPa Calm     96 % 0 mm
02:15 14 °C 13.4 °C 1019.2 hPa Calm     96 % 0 mm
02:20 14.1 °C 13.6 °C 1018.8 hPa Calm     97 % 0 mm
02:25 14.2 °C 13.7 °C 1018.8 hPa Calm     97 % 0 mm
02:30 14.2 °C 13.7 °C 1018.8 hPa Calm     97 % 0 mm
02:40 14.2 °C 13.7 °C 1018.8 hPa Calm     97 % 0 mm
02:50 14.1 °C 13.6 °C 1018.8 hPa Calm   1.6 km/h 97 % 0 mm
02:55 14.1 °C 13.6 °C 1018.5 hPa Calm   1.6 km/h 97 % 0 mm
03:00 14.1 °C 13.6 °C 1018.8 hPa Calm     97 % 0 mm
03:15 14.1 °C 13.6 °C 1018.5 hPa Calm     97 % 0 mm
03:25 14 °C 13.5 °C 1018.5 hPa Calm     97 % 0 mm
03:30 14 °C 13.5 °C 1018.5 hPa Calm     97 % 0 mm
03:35 14 °C 13.5 °C 1018.5 hPa Calm     97 % 0 mm
03:40 13.9 °C 13.4 °C 1018.5 hPa Calm   1.6 km/h 97 % 0 mm
03:45 13.9 °C 13.4 °C 1018.5 hPa Calm   1.6 km/h 97 % 0 mm
03:50 13.9 °C 13.4 °C 1018.5 hPa Calm   1.6 km/h 97 % 0 mm
03:55 13.8 °C 13.3 °C 1018.5 hPa Calm   1.6 km/h 97 % 0 mm
04:00 13.8 °C 13.3 °C 1018.5 hPa Calm   1.6 km/h 97 % 0 mm
04:05 13.8 °C 13.3 °C 1018.5 hPa Calm     97 % 0 mm
04:10 13.7 °C 13.2 °C 1018.5 hPa Calm     97 % 0 mm
04:15 13.7 °C 13.2 °C 1018.5 hPa Calm     97 % 0 mm
04:21 13.6 °C 13.3 °C 1018.5 hPa Calm     98 % 0 mm
04:26 13.6 °C 13.3 °C 1018.8 hPa Calm     98 % 0 mm
04:31 13.5 °C 13 °C 1018.8 hPa Calm     97 % 0 mm
04:36 13.4 °C 13.1 °C 1018.8 hPa Calm     98 % 0 mm
04:41 13.3 °C 13 °C 1018.8 hPa Calm     98 % 0 mm
04:46 13.3 °C 13 °C 1018.8 hPa Calm     98 % 0 mm
04:51 13.2 °C 12.9 °C 1018.8 hPa Calm     98 % 0 mm
04:56 13.1 °C 12.6 °C 1018.8 hPa Calm     97 % 0 mm
05:01 13.1 °C 12.8 °C 1018.8 hPa Calm     98 % 0 mm
05:06 13.1 °C 12.8 °C 1018.8 hPa Calm     98 % 0 mm
05:11 13.2 °C 12.9 °C 1018.8 hPa Calm     98 % 0 mm
05:16 13.2 °C 12.9 °C 1018.8 hPa Calm     98 % 0 mm
05:21 13.2 °C 12.9 °C 1018.8 hPa Calm     98 % 0 mm
05:26 13.1 °C 12.8 °C 1018.8 hPa Calm     98 % 0 mm
05:31 13.1 °C 12.8 °C 1018.8 hPa Calm     98 % 0 mm
05:36 13.1 °C 12.8 °C 1018.8 hPa Calm     98 % 0 mm
05:38 13.1 °C 12.8 °C 1018.8 hPa Calm     98 % 0 mm
05:48 12.9 °C 12.6 °C 1018.8 hPa Calm     98 % 0 mm
05:53 12.9 °C 12.6 °C 1019.2 hPa Calm     98 % 0 mm
05:58 12.9 °C 12.6 °C 1019.2 hPa Calm     98 % 0 mm
06:03 12.9 °C 12.6 °C 1019.2 hPa Calm     98 % 0 mm
06:08 12.9 °C 12.6 °C 1019.2 hPa Calm     98 % 0 mm
06:13 12.9 °C 12.6 °C 1019.2 hPa Calm     98 % 0 mm
06:18 13 °C 12.7 °C 1019.2 hPa Calm   1.6 km/h 98 % 0 mm
06:23 13 °C 12.7 °C 1019.2 hPa Calm   1.6 km/h 98 % 0 mm
06:28 13.2 °C 12.9 °C 1019.2 hPa Calm   1.6 km/h 98 % 0 mm
06:33 13.3 °C 13 °C 1019.5 hPa Calm   1.6 km/h 98 % 0 mm
06:38 13.4 °C 13.2 °C 1019.5 hPa Calm   3.2 km/h 99 % 0 mm
06:43 13.6 °C 13.4 °C 1019.5 hPa Calm   3.2 km/h 99 % 0 mm
06:44 13.6 °C 13.4 °C 1019.5 hPa Calm   3.2 km/h 99 % 0 mm
06:49 13.6 °C 13.3 °C 1019.5 hPa Calm   3.2 km/h 98 % 0 mm
06:54 13.6 °C 13.3 °C 1019.5 hPa Calm   3.2 km/h 98 % 0 mm
06:59 13.7 °C 13.4 °C 1019.9 hPa Calm   1.6 km/h 98 % 0 mm
07:04 13.7 °C 13.4 °C 1019.9 hPa Calm   1.6 km/h 98 % 0 mm
07:09 13.7 °C 13.4 °C 1019.9 hPa Calm   1.6 km/h 98 % 0 mm
07:14 13.7 °C 13.4 °C 1019.9 hPa Calm   1.6 km/h 98 % 0 mm
07:15 13.7 °C 13.4 °C 1019.9 hPa Calm   1.6 km/h 98 % 0 mm
07:20 13.8 °C 13.6 °C 1019.9 hPa Calm   1.6 km/h 99 % 0 mm
07:25 13.8 °C 13.6 °C 1019.9 hPa Calm   1.6 km/h 99 % 0 mm
07:30 13.9 °C 13.7 °C 1019.9 hPa ENE 1.6 km/h 1.6 km/h 99 % 0 mm
07:35 14 °C 13.8 °C 1019.9 hPa Calm   3.2 km/h 99 % 0 mm
07:40 14 °C 13.8 °C 1019.9 hPa ENE 1.6 km/h 3.2 km/h 99 % 0 mm
07:45 14.1 °C 13.9 °C 1019.9 hPa Calm   3.2 km/h 99 % 0 mm
07:50 14.1 °C 13.9 °C 1019.9 hPa East 1.6 km/h 3.2 km/h 99 % 0 mm
07:55 14.2 °C 14 °C 1019.9 hPa Calm   4.8 km/h 99 % 0 mm
08:00 14.2 °C 14 °C 1019.9 hPa Calm   4.8 km/h 99 % 0 mm
08:05 14.3 °C 14.1 °C 1019.9 hPa ENE 1.6 km/h 4.8 km/h 99 % 0 mm
08:10 14.3 °C 14.1 °C 1019.9 hPa Calm   4.8 km/h 99 % 0 mm
08:15 14.4 °C 14.2 °C 1020.2 hPa ENE 1.6 km/h 4.8 km/h 99 % 0 mm
08:20 14.6 °C 14.4 °C 1020.2 hPa North 1.6 km/h 4.8 km/h 99 % 0 mm
08:25 14.7 °C 14.5 °C 1020.2 hPa Calm   3.2 km/h 99 % 0 mm
08:30 14.9 °C 14.7 °C 1020.2 hPa Calm   3.2 km/h 99 % 0 mm
08:35 15.2 °C 15 °C 1020.2 hPa East 1.6 km/h 3.2 km/h 99 % 0 mm
08:40 15.4 °C 15.2 °C 1020.2 hPa Calm   4.8 km/h 99 % 0 mm
08:45 15.7 °C 15.5 °C 1020.2 hPa East 3.2 km/h 4.8 km/h 99 % 0 mm
08:50 15.8 °C 15.6 °C 1020.2 hPa Calm   6.4 km/h 99 % 0 mm
08:56 16.1 °C 15.9 °C 1020.2 hPa East 1.6 km/h 6.4 km/h 99 % 0 mm
09:01 16.4 °C 16.2 °C 1020.5 hPa Calm   6.4 km/h 99 % 0 mm
09:06 17 °C 17 °C 1020.5 hPa Calm   6.4 km/h 100 % 0 mm
09:11 17.3 °C 17.1 °C 1020.5 hPa East 3.2 km/h 8 km/h 99 % 0 mm
09:16 17.3 °C 17 °C 1020.5 hPa Calm   8 km/h 98 % 0 mm
09:21 17.7 °C 17.4 °C 1020.5 hPa ENE 1.6 km/h 8 km/h 98 % 0 mm
09:26 17.8 °C 17.3 °C 1020.9 hPa Calm   4.8 km/h 97 % 0 mm
09:31 17.9 °C 17.4 °C 1020.9 hPa Calm   3.2 km/h 97 % 0 mm
09:36 18 °C 17.2 °C 1020.5 hPa ESE 1.6 km/h 4.8 km/h 95 % 0 mm
09:41 18.1 °C 17.3 °C 1020.5 hPa East 3.2 km/h 4.8 km/h 95 % 0 mm
09:46 18.2 °C 17.2 °C 1020.5 hPa SE 1.6 km/h 4.8 km/h 94 % 0 mm
09:51 18.4 °C 17.2 °C 1020.5 hPa ENE 1.6 km/h 3.2 km/h 93 % 0 mm
09:56 18.6 °C 17.3 °C 1020.5 hPa East 1.6 km/h 3.2 km/h 92 % 0 mm
10:01 18.6 °C 17.1 °C 1020.5 hPa SE 3.2 km/h 3.2 km/h 91 % 0 mm
10:06 18.6 °C 16.9 °C 1020.2 hPa East 1.6 km/h 6.4 km/h 90 % 0 mm
10:11 18.8 °C 17.1 °C 1020.2 hPa North 1.6 km/h 6.4 km/h 90 % 0 mm
10:13 18.8 °C 17.1 °C 1020.2 hPa East 3.2 km/h 6.4 km/h 90 % 0 mm
10:18 19.2 °C 17.5 °C 1020.2 hPa NNE 3.2 km/h 6.4 km/h 90 % 0 mm
10:23 19.4 °C 17.5 °C 1020.2 hPa East 1.6 km/h 6.4 km/h 89 % 0 mm
10:28 19.5 °C 17.5 °C 1020.2 hPa ENE 1.6 km/h 6.4 km/h 88 % 0 mm
10:33 19.6 °C 17.7 °C 1019.9 hPa ESE 4.8 km/h 8 km/h 89 % 0 mm
10:38 19.8 °C 17.8 °C 1019.9 hPa East 4.8 km/h 8 km/h 88 % 0 mm
10:43 19.9 °C 17.9 °C 1019.9 hPa SSE 1.6 km/h 8 km/h 88 % 0 mm
10:48 20.2 °C 18.1 °C 1019.9 hPa Calm   8 km/h 88 % 0 mm
10:53 20.3 °C 18.1 °C 1019.9 hPa Calm   8 km/h 87 % 0 mm
10:58 20.3 °C 18.1 °C 1019.9 hPa East 3.2 km/h 6.4 km/h 87 % 0 mm
11:03 20.2 °C 18 °C 1019.9 hPa East 1.6 km/h 4.8 km/h 87 % 0 mm
11:08 20.1 °C 18 °C 1019.9 hPa NW 1.6 km/h 4.8 km/h 88 % 0 mm
11:13 20.1 °C 18 °C 1019.9 hPa ENE 1.6 km/h 4.8 km/h 88 % 0 mm
11:18 20.1 °C 18.2 °C 1019.9 hPa Calm   3.2 km/h 89 % 0.25 mm
11:23 20 °C 18.3 °C 1019.9 hPa Calm   3.2 km/h 90 % 0.25 mm
11:28 19.9 °C 18.2 °C 1019.5 hPa Calm   3.2 km/h 90 % 0.25 mm
11:33 19.9 °C 18.4 °C 1019.5 hPa Calm   3.2 km/h 91 % 0.25 mm
11:38 20 °C 18.7 °C 1019.2 hPa East 1.6 km/h 3.2 km/h 92 % 0.25 mm
11:43 20.2 °C 18.9 °C 1019.2 hPa Calm   3.2 km/h 92 % 0.25 mm
11:48 20.3 °C 19 °C 1019.2 hPa ESE 3.2 km/h 4.8 km/h 92 % 0.25 mm
11:53 20.3 °C 19 °C 1018.8 hPa SE 1.6 km/h 4.8 km/h 92 % 0.25 mm
11:58 20.3 °C 18.8 °C 1018.8 hPa ESE 1.6 km/h 4.8 km/h 91 % 0.25 mm
12:03 20.1 °C 18.6 °C 1018.5 hPa ESE 1.6 km/h 8 km/h 91 % 0.25 mm
12:08 20.1 °C 18.8 °C 1018.5 hPa Calm   11.3 km/h 92 % 0.25 mm
12:13 20 °C 18.7 °C 1018.5 hPa East 3.2 km/h 11.3 km/h 92 % 0.25 mm
12:18 19.8 °C 18.5 °C 1018.2 hPa Calm   14.5 km/h 92 % 0.25 mm
12:23 19.7 °C 18.5 °C 1018.2 hPa South 3.2 km/h 14.5 km/h 93 % 1.02 mm
12:28 19.6 °C 18.6 °C 1018.5 hPa SSE 3.2 km/h 14.5 km/h 94 % 1.02 mm
12:33 19.4 °C 18.4 °C 1018.5 hPa ENE 4.8 km/h 9.7 km/h 94 % 3.3 mm
12:38 19.3 °C 18.3 °C 1017.8 hPa East 4.8 km/h 9.7 km/h 94 % 7.37 mm
12:43 19.1 °C 18.3 °C 1018.2 hPa Calm   9.7 km/h 95 % 9.65 mm
12:48 19.1 °C 18.3 °C 1018.2 hPa Calm   8 km/h 95 % 9.91 mm
12:53 19.1 °C 18.4 °C 1017.8 hPa Calm   6.4 km/h 96 % 9.91 mm
12:58 19.1 °C 18.4 °C 1017.8 hPa ENE 1.6 km/h 6.4 km/h 96 % 9.91 mm
13:03 19.3 °C 18.8 °C 1017.8 hPa South 3.2 km/h 6.4 km/h 97 % 9.91 mm
13:08 19.5 °C 19 °C 1017.8 hPa ESE 1.6 km/h 8 km/h 97 % 9.91 mm
13:13 19.7 °C 19.2 °C 1017.5 hPa East 3.2 km/h 8 km/h 97 % 9.91 mm
13:18 19.7 °C 19.2 °C 1017.5 hPa Calm   8 km/h 97 % 9.65 mm
13:23 19.8 °C 19.3 °C 1017.5 hPa Calm   6.4 km/h 97 % 8.89 mm
13:29 19.9 °C 19.4 °C 1017.2 hPa East 4.8 km/h 6.4 km/h 97 % 8.64 mm
13:34 19.9 °C 19.2 °C 1017.2 hPa Calm   4.8 km/h 96 % 6.35 mm
13:39 19.8 °C 19.1 °C 1017.2 hPa ENE 1.6 km/h 6.4 km/h 96 % 2.54 mm
13:44 19.8 °C 19.1 °C 1017.2 hPa Calm   6.4 km/h 96 % 0.25 mm
13:49 19.9 °C 19.4 °C 1017.2 hPa Calm   6.4 km/h 97 % 0 mm
13:54 19.9 °C 19.2 °C 1016.8 hPa East 3.2 km/h 6.4 km/h 96 % 0 mm
13:59 20 °C 19.3 °C 1016.8 hPa Calm   6.4 km/h 96 % 0 mm
14:04 20.1 °C 19.6 °C 1016.8 hPa ESE 3.2 km/h 6.4 km/h 97 % 0 mm
14:09 20.2 °C 19.5 °C 1016.5 hPa SE 1.6 km/h 6.4 km/h 96 % 0 mm
14:14 20.1 °C 19.4 °C 1016.5 hPa ESE 3.2 km/h 6.4 km/h 96 % 0 mm
14:19 20.1 °C 19.4 °C 1016.5 hPa East 1.6 km/h 8 km/h 96 % 0 mm
14:24 20 °C 19.3 °C 1016.1 hPa East 3.2 km/h 8 km/h 96 % 0 mm
14:29 19.9 °C 19.2 °C 1016.1 hPa NE 1.6 km/h 9.7 km/h 96 % 0 mm
14:34 19.9 °C 19.2 °C 1016.5 hPa ESE 4.8 km/h 9.7 km/h 96 % 0 mm
14:39 19.9 °C 19.2 °C 1016.5 hPa Calm   9.7 km/h 96 % 0 mm
14:44 19.9 °C 19.2 °C 1016.5 hPa Calm   6.4 km/h 96 % 0 mm
14:49 19.9 °C 19.2 °C 1016.5 hPa Calm   6.4 km/h 96 % 0 mm
14:54 19.9 °C 19.2 °C 1016.1 hPa Calm   4.8 km/h 96 % 0 mm
14:59 19.9 °C 19.2 °C 1016.5 hPa Calm   4.8 km/h 96 % 0 mm
15:04 19.9 °C 19.2 °C 1016.1 hPa Calm   4.8 km/h 96 % 0 mm
15:09 19.9 °C 19.2 °C 1016.5 hPa Calm   4.8 km/h 96 % 0 mm
15:14 19.8 °C 19.1 °C 1016.1 hPa ENE 1.6 km/h 4.8 km/h 96 % 0 mm
15:19 19.8 °C 19.1 °C 1016.5 hPa Calm   4.8 km/h 96 % 0 mm
15:20 19.7 °C 19 °C 1016.5 hPa ENE 1.6 km/h 4.8 km/h 96 % 0 mm
15:25 19.7 °C 19 °C 1016.5 hPa Calm   4.8 km/h 96 % 0 mm
15:30 19.7 °C 19.2 °C 1016.5 hPa Calm   4.8 km/h 97 % 0 mm
15:35 19.6 °C 19.1 °C 1016.1 hPa Calm   6.4 km/h 97 % 0 mm
15:40 19.6 °C 19.1 °C 1016.1 hPa Calm   6.4 km/h 97 % 0 mm
15:45 19.6 °C 19.1 °C 1016.1 hPa NE 3.2 km/h 6.4 km/h 97 % 0 mm
15:50 19.6 °C 19.1 °C 1016.1 hPa North 1.6 km/h 6.4 km/h 97 % 0 mm
15:55 19.6 °C 19.1 °C 1016.5 hPa NNW 3.2 km/h 6.4 km/h 97 % 0 mm
16:00 19.5 °C 19 °C 1016.5 hPa North 1.6 km/h 6.4 km/h 97 % 0 mm
16:05 19.5 °C 19 °C 1016.5 hPa ESE 3.2 km/h 4.8 km/h 97 % 0 mm
16:10 19.5 °C 19 °C 1016.5 hPa North 1.6 km/h 3.2 km/h 97 % 0 mm
16:15 19.5 °C 19 °C 1016.1 hPa ENE 1.6 km/h 4.8 km/h 97 % 0 mm
16:20 19.4 °C 18.9 °C 1016.1 hPa Calm   4.8 km/h 97 % 0 mm
16:25 19.4 °C 18.9 °C 1016.1 hPa Calm   6.4 km/h 97 % 0 mm
16:30 19.4 °C 18.9 °C 1016.1 hPa ESE 1.6 km/h 6.4 km/h 97 % 0.25 mm
16:35 19.4 °C 18.9 °C 1016.1 hPa Calm   6.4 km/h 97 % 0.25 mm
16:40 19.4 °C 18.9 °C 1016.1 hPa North 3.2 km/h 4.8 km/h 97 % 0.51 mm
16:45 19.4 °C 19.1 °C 1015.8 hPa North 1.6 km/h 6.4 km/h 98 % 0.76 mm
16:51 19.3 °C 19 °C 1015.8 hPa North 1.6 km/h 6.4 km/h 98 % 1.02 mm
16:56 19.3 °C 19 °C 1016.1 hPa NE 1.6 km/h 6.4 km/h 98 % 1.52 mm
17:01 19.3 °C 19 °C 1016.1 hPa NNE 1.6 km/h 3.2 km/h 98 % 1.78 mm
17:06 19.3 °C 19 °C 1016.1 hPa Calm   4.8 km/h 98 % 1.78 mm
17:11 19.3 °C 19 °C 1016.1 hPa ENE 4.8 km/h 4.8 km/h 98 % 2.03 mm
17:16 19.4 °C 19.1 °C 1016.1 hPa Calm   6.4 km/h 98 % 2.03 mm
17:21 19.4 °C 19.1 °C 1016.1 hPa Calm   6.4 km/h 98 % 2.29 mm
17:26 19.4 °C 19.1 °C 1015.8 hPa ENE 1.6 km/h 6.4 km/h 98 % 2.54 mm
17:31 19.4 °C 19.1 °C 1016.1 hPa Calm   3.2 km/h 98 % 2.79 mm
17:36 19.4 °C 19.1 °C 1016.1 hPa Calm   3.2 km/h 98 % 3.05 mm
17:41 19.4 °C 19.1 °C 1016.1 hPa Calm   3.2 km/h 98 % 3.05 mm
17:46 19.4 °C 19.1 °C 1016.1 hPa NNW 1.6 km/h 4.8 km/h 98 % 3.05 mm
17:51 19.4 °C 19.1 °C 1016.1 hPa NE 1.6 km/h 4.8 km/h 98 % 2.79 mm
17:56 19.4 °C 19.1 °C 1015.8 hPa SE 1.6 km/h 6.4 km/h 98 % 2.79 mm
18:01 19.4 °C 19.1 °C 1015.8 hPa Calm   8 km/h 98 % 2.54 mm
18:06 19.4 °C 19.1 °C 1015.8 hPa ESE 3.2 km/h 12.9 km/h 98 % 3.05 mm
18:11 19.3 °C 19 °C 1016.1 hPa SE 1.6 km/h 12.9 km/h 98 % 3.56 mm
18:16 19.3 °C 19 °C 1016.5 hPa ESE 1.6 km/h 12.9 km/h 98 % 5.33 mm
18:21 19.3 °C 19.1 °C 1016.5 hPa ENE 4.8 km/h 9.7 km/h 99 % 6.86 mm
18:26 19.4 °C 19.2 °C 1016.5 hPa ENE 6.4 km/h 8 km/h 99 % 7.37 mm
18:31 19.4 °C 19.2 °C 1016.5 hPa Calm   8 km/h 99 % 7.62 mm
18:36 19.4 °C 19.2 °C 1016.5 hPa ESE 3.2 km/h 9.7 km/h 99 % 7.37 mm
18:41 19.4 °C 19.2 °C 1016.1 hPa East 6.4 km/h 9.7 km/h 99 % 7.11 mm
18:42 19.4 °C 19.2 °C 1016.1 hPa NNW 1.6 km/h 9.7 km/h 99 % 7.11 mm
18:47 19.4 °C 19.2 °C 1016.1 hPa NE 3.2 km/h 9.7 km/h 99 % 7.11 mm
18:52 19.4 °C 19.2 °C 1016.5 hPa East 4.8 km/h 9.7 km/h 99 % 6.86 mm
18:57 19.4 °C 19.2 °C 1016.1 hPa ESE 12.9 km/h 12.9 km/h 99 % 6.6 mm
19:02 19.4 °C 19.2 °C 1016.1 hPa NNW 4.8 km/h 19.3 km/h 99 % 6.6 mm
19:07 19.4 °C 19.2 °C 1016.1 hPa SSE 3.2 km/h 19.3 km/h 99 % 6.1 mm
19:12 19.4 °C 19.2 °C 1016.5 hPa SW 3.2 km/h 19.3 km/h 99 % 5.33 mm
19:17 19.4 °C 19.2 °C 1016.5 hPa Calm   17.7 km/h 99 % 3.56 mm
19:22 19.4 °C 19.2 °C 1016.5 hPa SE 1.6 km/h 11.3 km/h 99 % 1.78 mm
19:27 19.5 °C 19.3 °C 1016.5 hPa SSE 3.2 km/h 9.7 km/h 99 % 1.27 mm
19:32 19.5 °C 19.3 °C 1016.1 hPa SE 8 km/h 8 km/h 99 % 0.51 mm
19:37 19.4 °C 19.2 °C 1016.1 hPa Calm   12.9 km/h 99 % 0.76 mm
19:42 19.4 °C 19.2 °C 1016.1 hPa Calm   12.9 km/h 99 % 0.76 mm
19:47 19.3 °C 19.1 °C 1016.1 hPa SE 1.6 km/h 12.9 km/h 99 % 0.51 mm
19:50 19.3 °C 19.1 °C 1016.1 hPa East 6.4 km/h 11.3 km/h 99 % 0.51 mm
19:55 19.3 °C 19.1 °C 1016.1 hPa ESE 1.6 km/h 14.5 km/h 99 % 0.51 mm
20:00 19.3 °C 19.1 °C 1016.1 hPa East 1.6 km/h 14.5 km/h 99 % 0.51 mm
20:05 19.3 °C 19.1 °C 1016.1 hPa East 3.2 km/h 14.5 km/h 99 % 0.51 mm
20:10 19.3 °C 19.1 °C 1016.1 hPa SE 4.8 km/h 14.5 km/h 99 % 0.51 mm
20:15 19.3 °C 19.1 °C 1015.8 hPa South 3.2 km/h 14.5 km/h 99 % 0.51 mm
20:16 19.3 °C 19.1 °C 1016.1 hPa Calm   14.5 km/h 99 % 0.51 mm
20:21 19.4 °C 19.2 °C 1016.1 hPa SSW 1.6 km/h 14.5 km/h 99 % 0.51 mm
20:26 19.4 °C 19.2 °C 1016.1 hPa SE 9.7 km/h 12.9 km/h 99 % 0.25 mm
20:31 19.4 °C 19.2 °C 1016.5 hPa SW 1.6 km/h 16.1 km/h 99 % 0.25 mm
20:36 19.5 °C 19.3 °C 1016.5 hPa South 3.2 km/h 16.1 km/h 99 % 0 mm
20:41 19.5 °C 19.3 °C 1016.5 hPa SSE 4.8 km/h 16.1 km/h 99 % 0 mm
20:46 19.5 °C 19.3 °C 1016.5 hPa SE 6.4 km/h 14.5 km/h 99 % 0 mm
20:51 19.5 °C 19.3 °C 1016.5 hPa SSE 3.2 km/h 14.5 km/h 99 % 0 mm
20:56 19.5 °C 19.3 °C 1016.5 hPa SE 3.2 km/h 14.5 km/h 99 % 0 mm
21:01 19.5 °C 19.3 °C 1016.5 hPa SE 3.2 km/h 14.5 km/h 99 % 0 mm
21:06 19.5 °C 19.3 °C 1016.5 hPa SE 4.8 km/h 14.5 km/h 99 % 0 mm
21:11 19.6 °C 19.4 °C 1016.1 hPa SSE 4.8 km/h 14.5 km/h 99 % 0 mm
21:18 19.6 °C 19.4 °C 1016.1 hPa SE 4.8 km/h 14.5 km/h 99 % 0 mm
21:19 19.6 °C 19.4 °C 1016.1 hPa South 4.8 km/h 14.5 km/h 99 % 0 mm
21:22 19.6 °C 19.4 °C 1016.1 hPa South 8 km/h 14.5 km/h 99 % 0 mm
21:23 19.6 °C 19.4 °C 1016.1 hPa ESE 11.3 km/h 14.5 km/h 99 % 0 mm
21:27 19.6 °C 19.4 °C 1016.1 hPa SSE 6.4 km/h 14.5 km/h 99 % 0 mm
21:28 19.6 °C 19.4 °C 1016.1 hPa SSE 12.9 km/h 14.5 km/h 99 % 0 mm
21:33 19.6 °C 19.4 °C 1016.5 hPa SE 3.2 km/h 17.7 km/h 99 % 0 mm
21:38 19.6 °C 19.4 °C 1016.1 hPa ESE 6.4 km/h 17.7 km/h 99 % 0 mm
21:42 19.6 °C 19.4 °C 1016.5 hPa East 12.9 km/h 17.7 km/h 99 % 0 mm
21:47 19.6 °C 19.4 °C 1016.5 hPa SE 4.8 km/h 16.1 km/h 99 % 0 mm
21:52 19.7 °C 19.5 °C 1016.5 hPa ESE 4.8 km/h 16.1 km/h 99 % 0 mm
21:57 19.7 °C 19.5 °C 1016.5 hPa SE 3.2 km/h 16.1 km/h 99 % 0 mm
22:02 19.7 °C 19.5 °C 1016.5 hPa SSE 8 km/h 16.1 km/h 99 % 0 mm
22:07 19.7 °C 19.5 °C 1016.5 hPa ESE 4.8 km/h 17.7 km/h 99 % 0 mm
22:12 19.8 °C 19.6 °C 1016.5 hPa SSE 16.1 km/h 17.7 km/h 99 % 0 mm
22:17 19.8 °C 19.6 °C 1016.5 hPa SSW 3.2 km/h 17.7 km/h 99 % 0.25 mm
22:22 19.9 °C 19.7 °C 1016.8 hPa SE 12.9 km/h 17.7 km/h 99 % 0.25 mm
22:27 19.9 °C 19.7 °C 1016.8 hPa SE 6.4 km/h 20.9 km/h 99 % 0.25 mm
22:32 19.9 °C 19.6 °C 1016.5 hPa SSE 9.7 km/h 20.9 km/h 98 % 0.25 mm
22:37 19.9 °C 19.6 °C 1016.5 hPa SSE 9.7 km/h 20.9 km/h 98 % 0.25 mm
22:42 19.9 °C 19.6 °C 1016.5 hPa SE 4.8 km/h 19.3 km/h 98 % 0.25 mm
22:47 19.9 °C 19.6 °C 1016.1 hPa SE 6.4 km/h 19.3 km/h 98 % 0.25 mm
22:52 19.8 °C 19.5 °C 1016.1 hPa SE 8 km/h 16.1 km/h 98 % 0.25 mm
22:57 19.8 °C 19.5 °C 1016.1 hPa East 8 km/h 17.7 km/h 98 % 0.25 mm
23:02 19.8 °C 19.5 °C 1016.1 hPa SSE 4.8 km/h 17.7 km/h 98 % 0.25 mm
23:07 19.8 °C 19.5 °C 1016.5 hPa SE 9.7 km/h 17.7 km/h 98 % 0.25 mm
23:12 19.7 °C 19.2 °C 1016.1 hPa ESE 6.4 km/h 16.1 km/h 97 % 0.25 mm
23:17 19.7 °C 19.2 °C 1016.1 hPa SSE 6.4 km/h 16.1 km/h 97 % 0 mm
23:22 19.6 °C 19.1 °C 1016.1 hPa SE 4.8 km/h 16.1 km/h 97 % 0 mm
23:27 19.6 °C 19.1 °C 1016.1 hPa SE 8 km/h 14.5 km/h 97 % 0 mm
23:32 19.6 °C 19.1 °C 1016.1 hPa ESE 12.9 km/h 14.5 km/h 97 % 0 mm
23:38 19.6 °C 19.1 °C 1016.1 hPa SSE 4.8 km/h 14.5 km/h 97 % 0 mm
23:43 19.6 °C 19.1 °C 1016.1 hPa SSE 3.2 km/h 12.9 km/h 97 % 0 mm
23:48 19.6 °C 19.1 °C 1016.1 hPa SE 3.2 km/h 12.9 km/h 97 % 0 mm
23:53 19.6 °C 19.1 °C 1016.1 hPa SSE 3.2 km/h 12.9 km/h 97 % 0 mm
23:58 19.6 °C 19.1 °C 1015.8 hPa SE 1.6 km/h 12.9 km/h 97 % 0 mm
Spring, Texas: Villages of Bridgestone
Compliments of Weather Underground - 2.75 mb

Script developed by  Jim McMurry - jmcmurry@mwt.net Adapted for the template by  Wim van der Kuil - Leuven-Template.eu

You find our weather info also at:

UK Metoffice

WeatherCloud

Weather Underground

Mid-South Weather Network

AWEKAS

Citizen Weather Observer Program (CWOP)

HAMweather, WeatherForYou, PWS Weather

Equipment we use:

Weather-station
Davis Vantage Vue

Weather-program
Meteohub

Weather-server
Debian 7.9 x86 (Guest)

Provider
DreamHost

Davis Vantage Vue

Meteohub

Debian 7.9 x86 (Guest)

DreamHost